createdAt,value
2023-06-17T00:00:59.381Z,9.40
2023-06-17T00:03:16.376Z,8.88
2023-06-17T00:05:33.430Z,8.88
2023-06-17T00:07:50.319Z,9.55
2023-06-17T00:10:07.220Z,7.93
2023-06-17T00:12:24.182Z,7.38
2023-06-17T00:14:41.067Z,7.80
2023-06-17T00:16:57.960Z,8.50
2023-06-17T00:19:14.878Z,8.45
2023-06-17T00:21:31.766Z,10.05
2023-06-17T00:23:48.712Z,8.40
2023-06-17T00:26:05.641Z,7.75
2023-06-17T00:28:22.575Z,9.23
2023-06-17T00:30:39.490Z,8.23
2023-06-17T00:32:56.428Z,9.35
2023-06-17T00:35:13.796Z,7.88
2023-06-17T00:37:30.748Z,8.88
2023-06-17T00:39:47.655Z,8.40
2023-06-17T00:42:04.555Z,9.27
2023-06-17T00:44:21.448Z,9.60
2023-06-17T00:46:38.422Z,8.05
2023-06-17T00:48:55.383Z,9.07
2023-06-17T00:51:12.318Z,9.82
2023-06-17T00:53:29.220Z,11.52
2023-06-17T00:55:46.196Z,8.43
2023-06-17T00:58:03.094Z,8.02
2023-06-17T01:00:20.231Z,8.65
2023-06-17T01:02:37.967Z,8.30
2023-06-17T01:04:54.958Z,9.45
2023-06-17T01:07:11.921Z,9.93
2023-06-17T01:09:28.809Z,8.30
2023-06-17T01:11:45.701Z,8.20
2023-06-17T01:14:03.104Z,9.07
2023-06-17T01:16:20.034Z,9.20
2023-06-17T01:18:36.943Z,9.27
2023-06-17T01:20:53.835Z,11.70
2023-06-17T01:23:10.816Z,8.20
2023-06-17T01:25:27.751Z,10.30
2023-06-17T01:27:44.639Z,9.27
2023-06-17T01:30:01.516Z,11.40
2023-06-17T01:32:18.476Z,8.13
2023-06-17T01:34:35.405Z,8.85
2023-06-17T01:36:52.258Z,8.48
2023-06-17T01:39:09.187Z,11.20
2023-06-17T01:41:26.608Z,10.23
2023-06-17T01:43:43.543Z,9.02
2023-06-17T01:46:00.836Z,9.98
2023-06-17T01:48:17.787Z,8.27
2023-06-17T01:50:34.706Z,11.40
2023-06-17T01:52:51.614Z,8.88
2023-06-17T01:55:09.803Z,8.77
2023-06-17T01:57:26.722Z,10.30
2023-06-17T01:59:43.675Z,10.73
2023-06-17T02:02:00.569Z,9.82
2023-06-17T02:04:17.503Z,9.20
2023-06-17T02:06:34.942Z,10.85
2023-06-17T02:08:51.927Z,10.90
2023-06-17T02:11:08.819Z,8.48
2023-06-17T02:13:25.718Z,10.75
2023-06-17T02:15:42.607Z,10.10
2023-06-17T02:18:00.100Z,10.00
2023-06-17T02:20:17.089Z,8.15
2023-06-17T02:22:33.995Z,10.05
2023-06-17T02:24:50.894Z,11.48
2023-06-17T02:27:07.829Z,10.50
2023-06-17T02:29:25.199Z,10.52
2023-06-17T02:31:42.717Z,9.50
2023-06-17T02:34:00.203Z,8.77
2023-06-17T02:36:17.660Z,10.07
2023-06-17T02:38:34.617Z,8.32
2023-06-17T02:40:51.525Z,10.27
2023-06-17T02:43:08.439Z,8.63
2023-06-17T02:45:25.831Z,9.30
2023-06-17T02:47:43.169Z,9.95
2023-06-17T02:50:00.549Z,10.80
2023-06-17T02:52:17.860Z,9.13
2023-06-17T02:54:34.781Z,8.77
2023-06-17T02:56:51.672Z,8.20
2023-06-17T02:59:08.625Z,8.70
2023-06-17T03:01:25.647Z,10.70
2023-06-17T03:03:43.293Z,9.10
2023-06-17T03:06:00.213Z,11.23
2023-06-17T03:08:17.096Z,10.98
2023-06-17T03:10:33.986Z,8.77
2023-06-17T03:12:50.954Z,13.38
2023-06-17T03:15:08.360Z,12.30
2023-06-17T03:17:25.319Z,10.00
2023-06-17T03:19:42.229Z,8.98
2023-06-17T03:21:59.184Z,11.02
2023-06-17T03:24:16.133Z,9.45
2023-06-17T03:26:33.066Z,9.00
2023-06-17T03:28:49.975Z,9.40
2023-06-17T03:31:06.951Z,10.20
2023-06-17T03:33:23.877Z,9.50
2023-06-17T03:35:40.776Z,9.23
2023-06-17T03:37:57.633Z,10.50
2023-06-17T03:40:14.964Z,8.90
2023-06-17T03:42:31.903Z,11.23
2023-06-17T03:44:49.226Z,11.07
2023-06-17T03:47:06.124Z,10.82
2023-06-17T03:49:23.555Z,11.18
2023-06-17T03:51:40.905Z,9.63
2023-06-17T03:53:57.773Z,10.63
2023-06-17T03:56:14.731Z,11.27
2023-06-17T03:58:31.700Z,9.15
2023-06-17T04:00:48.598Z,10.20
2023-06-17T04:03:05.624Z,9.60
2023-06-17T04:05:23.589Z,9.40
2023-06-17T04:07:40.548Z,10.00
2023-06-17T04:10:06.291Z,10.70
2023-06-17T04:12:24.690Z,9.95
2023-06-17T04:14:41.636Z,10.98
2023-06-17T04:16:58.576Z,9.05
2023-06-17T04:19:15.555Z,10.02
2023-06-17T04:21:32.506Z,10.65
2023-06-17T04:23:49.481Z,10.25
2023-06-17T04:26:06.479Z,9.50
2023-06-17T04:28:23.387Z,11.00
2023-06-17T04:30:40.335Z,9.95
2023-06-17T04:32:57.798Z,11.32
2023-06-17T04:35:15.315Z,11.73
2023-06-17T04:37:32.189Z,9.85
2023-06-17T04:39:49.545Z,11.68
2023-06-17T04:42:06.434Z,9.90
2023-06-17T04:44:23.384Z,9.38
2023-06-17T04:46:40.302Z,10.50
2023-06-17T04:48:58.000Z,10.93
2023-06-17T04:51:14.924Z,11.15
2023-06-17T04:53:31.864Z,10.10
2023-06-17T04:55:48.774Z,10.35
2023-06-17T04:58:05.672Z,10.40
2023-06-17T05:00:22.831Z,10.95
2023-06-17T05:02:39.817Z,10.52
2023-06-17T05:04:56.740Z,10.30
2023-06-17T05:07:14.168Z,8.98
2023-06-17T05:09:31.084Z,10.88
2023-06-17T05:11:48.023Z,10.02
2023-06-17T05:14:04.884Z,8.75
2023-06-17T05:16:21.774Z,9.57
2023-06-17T05:18:38.732Z,10.82
2023-06-17T05:20:56.125Z,9.35
2023-06-17T05:23:13.016Z,8.40
2023-06-17T05:25:30.413Z,10.35
2023-06-17T05:27:47.326Z,10.90
2023-06-17T05:30:04.677Z,8.90
2023-06-17T05:32:21.649Z,10.90
2023-06-17T05:34:39.031Z,10.18
2023-06-17T05:36:56.421Z,9.77
2023-06-17T05:39:13.889Z,10.45
2023-06-17T05:41:30.793Z,13.10
2023-06-17T05:43:48.167Z,8.65
2023-06-17T05:46:05.094Z,9.63
2023-06-17T05:48:24.686Z,11.27
2023-06-17T05:50:43.202Z,9.52
2023-06-17T05:53:00.136Z,8.57
2023-06-17T05:55:17.554Z,11.55
2023-06-17T05:57:34.492Z,9.30
2023-06-17T05:59:51.387Z,11.45
2023-06-17T06:02:08.352Z,9.55
2023-06-17T06:04:25.282Z,11.07
2023-06-17T06:06:42.231Z,10.57
2023-06-17T06:08:59.151Z,9.30
2023-06-17T06:11:16.058Z,9.07
2023-06-17T06:13:32.949Z,9.48
2023-06-17T06:15:50.432Z,9.75
2023-06-17T06:18:08.208Z,8.32
2023-06-17T06:20:25.192Z,9.18
2023-06-17T06:22:42.098Z,10.23
2023-06-17T06:24:59.047Z,8.95
2023-06-17T06:27:15.941Z,11.00
2023-06-17T06:29:33.290Z,9.20
2023-06-17T06:31:50.167Z,9.93
2023-06-17T06:34:07.107Z,10.52
2023-06-17T06:36:24.078Z,9.73
2023-06-17T06:38:40.985Z,9.20
2023-06-17T06:40:57.857Z,8.73
2023-06-17T06:43:14.796Z,8.52
2023-06-17T06:45:31.747Z,8.25
2023-06-17T06:47:48.754Z,7.78
2023-06-17T06:50:07.249Z,9.32
2023-06-17T06:52:24.218Z,8.95
2023-06-17T06:54:41.142Z,7.82
2023-06-17T06:56:58.059Z,7.90
2023-06-17T06:59:14.953Z,8.15
2023-06-17T07:01:31.950Z,8.63
2023-06-17T07:03:48.856Z,7.78
2023-06-17T07:06:05.785Z,8.10
2023-06-17T07:08:23.385Z,8.48
2023-06-17T07:10:41.904Z,8.77
2023-06-17T07:12:59.486Z,8.57
2023-06-17T07:15:16.422Z,9.77
2023-06-17T07:17:33.376Z,8.00
2023-06-17T07:19:50.343Z,8.35
2023-06-17T07:22:07.843Z,10.75
2023-06-17T07:24:24.861Z,10.90
2023-06-17T07:26:41.906Z,8.80
2023-06-17T07:28:58.882Z,10.60
2023-06-17T07:31:15.811Z,9.02
2023-06-17T07:33:32.726Z,7.03
2023-06-17T07:35:49.644Z,8.65
2023-06-17T07:38:06.553Z,9.43
2023-06-17T07:40:23.645Z,7.63
2023-06-17T07:42:40.797Z,8.90
2023-06-17T07:44:57.735Z,8.60
2023-06-17T07:47:14.667Z,10.75
2023-06-17T07:49:31.594Z,11.43
2023-06-17T07:51:48.478Z,8.35
2023-06-17T07:54:05.404Z,11.68
2023-06-17T07:56:22.372Z,8.70
2023-06-17T07:58:39.282Z,8.30
2023-06-17T08:00:56.263Z,11.70
2023-06-17T08:03:13.324Z,10.38
2023-06-17T08:05:30.338Z,9.43
2023-06-17T08:07:47.231Z,12.20
2023-06-17T08:12:21.158Z,10.23
2023-06-17T08:14:38.090Z,9.60
2023-06-17T08:16:55.535Z,8.15
2023-06-17T08:19:12.450Z,11.23
2023-06-17T08:21:29.320Z,9.40
2023-06-17T08:23:46.258Z,9.55
2023-06-17T08:26:03.157Z,8.90
2023-06-17T08:28:20.520Z,8.55
2023-06-17T08:30:37.407Z,6.90
2023-06-17T08:32:54.836Z,6.88
2023-06-17T08:35:11.799Z,8.32
2023-06-17T08:37:28.732Z,6.88
2023-06-17T08:39:45.609Z,12.07
2023-06-17T08:42:02.535Z,9.63
2023-06-17T08:44:19.454Z,8.85
2023-06-17T08:46:36.346Z,10.63
2023-06-17T08:48:53.255Z,6.88
2023-06-17T08:51:10.732Z,8.35
2023-06-17T08:53:27.625Z,8.00
2023-06-17T08:55:44.548Z,8.23
2023-06-17T08:58:01.479Z,6.95
2023-06-17T09:00:18.676Z,7.40
2023-06-17T09:02:35.869Z,8.07
2023-06-17T09:04:52.927Z,7.97
2023-06-17T09:07:09.893Z,6.75
2023-06-17T09:09:26.837Z,6.00
2023-06-17T09:11:43.790Z,6.82
2023-06-17T09:14:00.795Z,8.95
2023-06-17T09:16:17.800Z,8.20
2023-06-17T09:18:34.782Z,7.70
2023-06-17T09:20:51.676Z,8.80
2023-06-17T09:23:08.585Z,4.90
2023-06-17T09:25:25.496Z,8.20
2023-06-17T09:27:42.458Z,8.10
2023-06-17T09:29:59.384Z,6.57
2023-06-17T09:32:16.295Z,7.65
2023-06-17T09:34:33.259Z,6.05
2023-06-17T09:36:50.163Z,7.90
2023-06-17T09:39:07.026Z,6.03
2023-06-17T09:41:23.932Z,8.15
2023-06-17T09:43:40.837Z,8.82
2023-06-17T09:45:57.782Z,7.85
2023-06-17T09:48:14.732Z,8.35
2023-06-17T09:50:31.677Z,12.43
2023-06-17T09:52:48.637Z,7.80
2023-06-17T09:55:05.553Z,9.30
2023-06-17T09:57:22.431Z,7.63
2023-06-17T09:59:39.373Z,10.82
2023-06-17T10:01:56.704Z,10.68
2023-06-17T10:04:13.719Z,7.38
2023-06-17T10:06:30.628Z,8.73
2023-06-17T10:08:47.516Z,9.30
2023-06-17T10:11:04.400Z,10.82
2023-06-17T10:13:21.300Z,7.22
2023-06-17T10:15:38.204Z,8.45
2023-06-17T10:17:55.168Z,7.78
2023-06-17T10:20:12.136Z,8.40
2023-06-17T10:22:29.077Z,7.47
2023-06-17T10:24:46.005Z,8.20
2023-06-17T10:29:20.784Z,6.20
2023-06-17T10:31:40.122Z,6.53
2023-06-17T10:34:07.476Z,7.85
2023-06-17T10:36:24.485Z,8.68
2023-06-17T10:38:41.444Z,8.70
2023-06-17T10:40:58.392Z,7.95
2023-06-17T10:43:15.290Z,9.07
2023-06-17T10:45:32.338Z,7.35
2023-06-17T10:47:49.363Z,9.68
2023-06-17T10:50:06.346Z,8.55
2023-06-17T10:52:23.248Z,10.10
2023-06-17T10:54:40.186Z,6.75
2023-06-17T10:56:57.121Z,7.18
2023-06-17T10:59:14.106Z,7.15
2023-06-17T11:01:31.025Z,6.60
2023-06-17T11:03:47.995Z,6.50
2023-06-17T11:06:04.991Z,6.75
2023-06-17T11:08:21.926Z,5.75
2023-06-17T11:10:38.909Z,7.03
2023-06-17T11:12:55.817Z,5.95
2023-06-17T11:15:12.732Z,5.70
2023-06-17T11:17:29.693Z,7.10
2023-06-17T11:19:46.631Z,8.93
2023-06-17T11:22:03.573Z,7.65
2023-06-17T11:24:20.506Z,8.20
2023-06-17T11:26:37.542Z,7.40
2023-06-17T11:28:54.448Z,6.50
2023-06-17T11:31:11.367Z,5.18
2023-06-17T11:33:28.416Z,7.30
2023-06-17T11:35:45.374Z,6.53
2023-06-17T11:38:02.271Z,9.70
2023-06-17T11:40:19.574Z,6.35
2023-06-17T11:42:36.795Z,6.18
2023-06-17T11:44:53.732Z,8.45
2023-06-17T11:47:10.886Z,7.72
2023-06-17T11:49:27.882Z,6.55
2023-06-17T11:51:44.801Z,6.18
2023-06-17T11:54:01.776Z,6.47
2023-06-17T11:56:18.681Z,6.00
2023-06-17T11:58:35.623Z,5.25
2023-06-17T12:00:52.562Z,5.70
2023-06-17T12:03:09.560Z,7.47
2023-06-17T12:05:26.489Z,5.13
2023-06-17T12:07:43.426Z,7.90
2023-06-17T12:10:00.397Z,5.70
2023-06-17T12:12:17.330Z,5.10
2023-06-17T12:14:34.203Z,9.52
2023-06-17T12:16:51.137Z,5.28
2023-06-17T12:19:08.037Z,5.68
2023-06-17T12:21:24.962Z,6.95
2023-06-17T12:23:42.047Z,5.00
2023-06-17T12:25:59.396Z,5.57
2023-06-17T12:28:16.258Z,5.30
2023-06-17T12:30:33.226Z,5.55
2023-06-17T12:32:50.188Z,5.57
2023-06-17T12:35:09.148Z,4.72
2023-06-17T12:37:26.185Z,5.25
2023-06-17T12:39:43.122Z,5.47
2023-06-17T12:42:00.048Z,5.68
2023-06-17T12:44:16.942Z,5.68
2023-06-17T12:46:33.868Z,4.80
2023-06-17T12:48:51.312Z,7.03
2023-06-17T12:51:10.201Z,4.90
2023-06-17T12:53:27.080Z,5.30
2023-06-17T12:55:43.968Z,5.70
2023-06-17T12:58:00.899Z,6.57
2023-06-17T13:00:17.854Z,4.93
2023-06-17T13:02:35.297Z,5.95
2023-06-17T13:04:52.272Z,5.82
2023-06-17T13:07:09.216Z,5.30
2023-06-17T13:09:26.130Z,6.35
2023-06-17T13:11:43.024Z,6.25
2023-06-17T13:13:59.953Z,6.18
2023-06-17T13:16:16.913Z,5.72
2023-06-17T13:18:33.819Z,5.55
2023-06-17T13:20:50.712Z,6.38
2023-06-17T13:23:07.599Z,6.68
2023-06-17T13:25:24.523Z,5.15
2023-06-17T13:27:41.554Z,6.10
2023-06-17T13:29:58.534Z,5.75
2023-06-17T13:32:17.694Z,5.90
2023-06-17T13:34:36.286Z,7.10
2023-06-17T13:36:53.206Z,8.25
2023-06-17T13:39:10.184Z,6.40
2023-06-17T13:41:27.124Z,7.13
2023-06-17T13:43:44.050Z,6.25
2023-06-17T13:46:00.999Z,11.43
2023-06-17T13:48:17.931Z,7.53
2023-06-17T13:50:37.164Z,7.93
2023-06-17T13:52:54.421Z,8.30
2023-06-17T13:55:11.338Z,8.45
2023-06-17T13:57:28.757Z,10.70
2023-06-17T13:59:45.656Z,6.82
2023-06-17T14:02:02.682Z,6.65
2023-06-17T14:04:20.175Z,6.93
2023-06-17T14:06:37.166Z,6.00
2023-06-17T14:08:54.057Z,7.07
2023-06-17T14:11:11.055Z,6.60
2023-06-17T14:13:27.910Z,7.55
2023-06-17T14:15:44.812Z,6.28
2023-06-17T14:18:01.802Z,7.78
2023-06-17T14:20:18.805Z,7.03
2023-06-17T14:22:36.188Z,6.55
2023-06-17T14:24:53.118Z,6.85
2023-06-17T14:27:10.053Z,7.45
2023-06-17T14:29:26.998Z,6.43
2023-06-17T14:31:44.410Z,10.15
2023-06-17T14:34:01.305Z,7.68
2023-06-17T14:36:18.266Z,8.90
2023-06-17T14:38:35.206Z,5.95
2023-06-17T14:40:52.098Z,6.80
2023-06-17T14:43:09.002Z,6.88
2023-06-17T14:45:25.935Z,8.13
2023-06-17T14:47:42.966Z,8.27
2023-06-17T14:49:59.989Z,7.47
2023-06-17T14:52:16.880Z,7.88
2023-06-17T14:54:33.829Z,6.40
2023-06-17T14:56:51.284Z,6.13
2023-06-17T14:59:08.686Z,7.82
2023-06-17T15:01:25.634Z,6.80
2023-06-17T15:03:42.676Z,7.55
2023-06-17T15:05:59.659Z,7.13
2023-06-17T15:08:16.605Z,8.25
2023-06-17T15:10:33.504Z,7.72
2023-06-17T15:12:50.399Z,10.18
2023-06-17T15:15:07.395Z,7.32
2023-06-17T15:17:24.329Z,6.75
2023-06-17T15:19:41.252Z,8.02
2023-06-17T15:21:58.190Z,9.82
2023-06-17T15:24:15.666Z,8.30
2023-06-17T15:26:32.654Z,7.65
2023-06-17T15:28:49.572Z,8.48
2023-06-17T15:31:06.488Z,8.68
2023-06-17T15:33:23.414Z,6.35
2023-06-17T15:35:40.357Z,8.88
2023-06-17T15:37:57.251Z,7.30
2023-06-17T15:40:14.222Z,6.80
2023-06-17T15:42:31.571Z,10.38
2023-06-17T15:44:48.520Z,7.35
2023-06-17T15:47:05.458Z,9.77
2023-06-17T15:49:22.772Z,8.70
2023-06-17T15:51:39.713Z,9.75
2023-06-17T15:53:56.662Z,10.05
2023-06-17T15:56:13.559Z,10.90
2023-06-17T15:58:30.442Z,20.02
2023-06-17T16:00:47.402Z,10.98
2023-06-17T16:03:04.331Z,9.40
2023-06-17T16:05:21.270Z,10.18
2023-06-17T16:07:38.189Z,7.22
2023-06-17T16:09:55.160Z,7.38
2023-06-17T16:12:12.113Z,7.97
2023-06-17T16:14:29.029Z,8.13
2023-06-17T16:16:45.925Z,7.57
2023-06-17T16:19:02.886Z,8.40
2023-06-17T16:21:19.806Z,9.32
2023-06-17T16:23:36.740Z,10.43
2023-06-17T16:25:56.024Z,9.60
2023-06-17T16:28:13.200Z,10.65
2023-06-17T16:30:30.098Z,7.90
2023-06-17T16:32:47.440Z,7.40
2023-06-17T16:35:04.404Z,9.50
2023-06-17T16:37:21.320Z,7.28
2023-06-17T16:39:38.263Z,8.43
2023-06-17T16:41:55.199Z,9.45
2023-06-17T16:44:12.079Z,7.90
2023-06-17T16:46:28.995Z,9.38
2023-06-17T16:48:45.882Z,7.82
2023-06-17T16:51:02.796Z,9.38
2023-06-17T16:53:20.101Z,8.60
2023-06-17T16:55:37.078Z,7.68
2023-06-17T16:57:53.956Z,8.00
2023-06-17T17:00:11.316Z,8.35
2023-06-17T17:02:28.365Z,8.98
2023-06-17T17:04:45.392Z,9.15
2023-06-17T17:07:02.325Z,9.90
2023-06-17T17:09:19.305Z,10.55
2023-06-17T17:11:36.315Z,7.28
2023-06-17T17:13:53.293Z,7.55
2023-06-17T17:16:10.247Z,6.70
2023-06-17T17:18:27.176Z,7.00
2023-06-17T17:20:44.096Z,7.70
2023-06-17T17:23:01.534Z,9.55
2023-06-17T17:25:18.454Z,11.07
2023-06-17T17:27:35.390Z,7.68
2023-06-17T17:29:52.294Z,8.45
2023-06-17T17:32:09.464Z,7.93
2023-06-17T17:34:26.396Z,6.90
2023-06-17T17:36:43.268Z,9.23
2023-06-17T17:39:00.339Z,8.23
2023-06-17T17:41:17.435Z,9.07
2023-06-17T17:43:34.333Z,7.10
2023-06-17T17:45:51.353Z,8.13
2023-06-17T17:48:08.432Z,7.53
2023-06-17T17:50:25.381Z,8.93
2023-06-17T17:52:42.281Z,8.48
2023-06-17T17:55:02.756Z,8.25
2023-06-17T17:57:20.492Z,10.30
2023-06-17T17:59:37.404Z,7.32
2023-06-17T18:01:54.763Z,8.02
2023-06-17T18:04:11.658Z,8.02
2023-06-17T18:06:28.565Z,12.77
2023-06-17T18:08:45.543Z,9.82
2023-06-17T18:11:02.490Z,9.98
2023-06-17T18:13:19.398Z,10.18
2023-06-17T18:15:36.381Z,8.32
2023-06-17T18:17:53.415Z,12.80
2023-06-17T18:20:10.481Z,12.57
2023-06-17T18:22:27.464Z,13.05
2023-06-17T18:24:44.781Z,9.38
2023-06-17T18:27:01.707Z,11.35
2023-06-17T18:29:18.602Z,10.68
2023-06-17T18:31:35.513Z,12.48
2023-06-17T18:33:52.421Z,9.65
2023-06-17T18:36:09.601Z,7.35
2023-06-17T18:38:26.525Z,7.28
2023-06-17T18:40:43.455Z,10.85
2023-06-17T18:43:00.395Z,8.70
2023-06-17T18:45:17.322Z,7.30
2023-06-17T18:47:34.257Z,8.55
2023-06-17T18:49:51.181Z,7.25
2023-06-17T18:52:08.092Z,8.50
2023-06-17T18:54:25.040Z,8.85
2023-06-17T18:56:41.960Z,9.50
2023-06-17T18:58:58.862Z,8.77
2023-06-17T19:01:15.854Z,7.85
2023-06-17T19:03:32.854Z,9.48
2023-06-17T19:05:49.784Z,9.15
2023-06-17T19:08:06.736Z,8.25
2023-06-17T19:10:24.157Z,7.38
2023-06-17T19:12:41.319Z,9.20
2023-06-17T19:14:58.279Z,6.57
2023-06-17T19:17:15.205Z,8.32
2023-06-17T19:19:32.141Z,6.95
2023-06-17T19:21:49.094Z,11.85
2023-06-17T19:24:06.032Z,7.95
2023-06-17T19:26:22.959Z,8.77
2023-06-17T19:28:39.903Z,9.38
2023-06-17T19:30:56.864Z,7.07
2023-06-17T19:33:14.031Z,10.10
2023-06-17T19:35:30.957Z,10.57
2023-06-17T19:37:48.908Z,7.70
2023-06-17T19:40:05.921Z,9.30
2023-06-17T19:42:23.331Z,10.18
2023-06-17T19:44:40.286Z,8.43
2023-06-17T19:46:58.297Z,8.13
2023-06-17T19:49:15.342Z,7.20
2023-06-17T19:51:32.272Z,8.20
2023-06-17T19:53:49.225Z,10.32
2023-06-17T19:56:06.186Z,9.57
2023-06-17T19:58:31.694Z,12.48
2023-06-17T20:00:48.682Z,9.02
2023-06-17T20:03:08.751Z,11.90
2023-06-17T20:05:25.733Z,8.65
2023-06-17T20:07:42.741Z,9.70
2023-06-17T20:09:59.693Z,8.18
2023-06-17T20:12:16.646Z,11.18
2023-06-17T20:14:33.805Z,14.88
2023-06-17T20:16:50.772Z,16.33
2023-06-17T20:19:08.701Z,18.17
2023-06-17T20:21:26.908Z,14.20
2023-06-17T20:23:43.850Z,13.20
2023-06-17T20:26:00.873Z,13.80
2023-06-17T20:28:18.199Z,14.98
2023-06-17T20:30:35.128Z,12.52
2023-06-17T20:32:52.078Z,9.98
2023-06-17T20:35:09.104Z,11.32
2023-06-17T20:37:26.265Z,10.30
2023-06-17T20:39:43.247Z,12.30
2023-06-17T20:42:00.252Z,11.95
2023-06-17T20:44:17.352Z,11.23
2023-06-17T20:46:34.554Z,11.52
2023-06-17T20:48:52.091Z,11.80
2023-06-17T20:51:09.041Z,10.60
2023-06-17T20:53:25.988Z,10.07
2023-06-17T20:55:42.915Z,11.88
2023-06-17T20:58:00.854Z,9.13
2023-06-17T21:00:17.799Z,8.45
2023-06-17T21:02:35.906Z,12.15
2023-06-17T21:04:52.910Z,8.90
2023-06-17T21:07:10.304Z,12.27
2023-06-17T21:09:29.727Z,9.50
2023-06-17T21:11:46.659Z,10.90
2023-06-17T21:14:03.598Z,9.95
2023-06-17T21:16:20.841Z,10.45
2023-06-17T21:18:37.807Z,10.07
2023-06-17T21:20:55.285Z,10.13
2023-06-17T21:23:12.243Z,11.50
2023-06-17T21:25:29.278Z,10.10
2023-06-17T21:27:46.211Z,10.52
2023-06-17T21:30:05.223Z,8.70
2023-06-17T21:32:22.600Z,9.57
2023-06-17T21:34:39.572Z,12.10
2023-06-17T21:36:58.517Z,10.65
2023-06-17T21:39:22.747Z,13.00
2023-06-17T21:43:56.483Z,12.70
2023-06-17T21:46:14.780Z,10.57
2023-06-17T21:48:31.853Z,13.60
2023-06-17T21:50:49.843Z,11.52
2023-06-17T21:53:06.754Z,15.13
2023-06-17T21:55:23.630Z,10.07
2023-06-17T21:57:40.620Z,12.90
2023-06-17T21:59:57.623Z,12.52
2023-06-17T22:02:14.743Z,12.77
2023-06-17T22:04:31.789Z,12.75
2023-06-17T22:06:48.761Z,12.40
2023-06-17T22:09:06.132Z,12.10
2023-06-17T22:11:23.258Z,12.05
2023-06-17T22:13:40.203Z,13.00
2023-06-17T22:15:57.484Z,12.52
2023-06-17T22:18:14.455Z,11.60
2023-06-17T22:20:32.328Z,10.52
2023-06-17T22:22:49.518Z,11.55
2023-06-17T22:25:07.757Z,10.02
2023-06-17T22:27:25.921Z,9.23
2023-06-17T22:29:42.885Z,10.60
2023-06-17T22:32:00.316Z,12.50
2023-06-17T22:34:20.151Z,13.23
2023-06-17T22:36:37.082Z,11.77
2023-06-17T22:38:54.244Z,13.52
2023-06-17T22:41:13.244Z,10.77
2023-06-17T22:43:34.375Z,10.85
2023-06-17T22:45:51.336Z,14.60
2023-06-17T22:48:08.892Z,11.30
2023-06-17T22:50:28.118Z,12.88
2023-06-17T22:52:52.193Z,12.00
2023-06-17T22:55:09.200Z,10.90
2023-06-17T22:57:26.128Z,10.95
2023-06-17T22:59:43.095Z,10.82
2023-06-17T23:02:02.157Z,12.57
2023-06-17T23:04:19.738Z,13.30
2023-06-17T23:06:38.922Z,9.75
2023-06-17T23:08:56.372Z,10.60
2023-06-17T23:11:15.384Z,10.75
2023-06-17T23:13:33.350Z,14.00
2023-06-17T23:15:50.872Z,11.45
2023-06-17T23:18:09.883Z,10.32
2023-06-17T23:20:27.139Z,9.25
2023-06-17T23:22:46.310Z,10.18
2023-06-17T23:25:08.239Z,9.43
2023-06-17T23:27:25.517Z,10.52
2023-06-17T23:29:42.478Z,12.95
2023-06-17T23:31:59.430Z,10.05
2023-06-17T23:34:16.392Z,11.50
2023-06-17T23:36:35.413Z,10.23
2023-06-17T23:38:52.665Z,12.93
2023-06-17T23:41:09.696Z,11.05
2023-06-17T23:43:26.630Z,9.48
2023-06-17T23:45:43.581Z,9.85
2023-06-17T23:48:00.710Z,11.38
2023-06-17T23:50:17.715Z,9.77
2023-06-17T23:52:34.604Z,8.77
2023-06-17T23:54:52.736Z,9.77
2023-06-17T23:57:10.536Z,9.18
2023-06-17T23:59:27.461Z,10.52
